メインページ
METAR-TAF:

METAR-TAF

空港 :

Red Deer, アルバータ州, カナダ

緯度: 52-11N, 経度: 113-54W, 海抜: 905m

現時点の気象観測

当レポートは48分前の05:00(UTC)に作成
の風 7kt
気温 14°C
湿度 77%
気圧 1020 hPa
視程: 24.1km
高度27000ftの雲はほとんどない

METAR: CYQF 220500Z 17007KT 15SM FEW270 14/10 A3013 RMK CI1 SLP210 DENSITY ALT 3400FT

時間: 23:48 (05:48 UTC)

予報

当レポートは8分前の05:40(UTC)に作成
予報は22日の 06時(UTC)から 22日の 18時(UTC)まで有効
の風 7kt
視程: 10km
晴天
22日の 15時(UTC)から 22日の 17時(UTC)まで徐々に
の風 12kt

TAF: CYQF 220540Z 2206/2218 17007KT P6SM SKC BECMG 2215/2217 17012KT RMK NXT FCST BY 221200Z

4,000以上の空港の気象観測と天気予報(METAR報とTAF報)

利用可能な観測所は地図上に黄色い丸と赤い丸で示す。

丸の上にカーソルを重ねると観測所名を参照できる。

次にクリックすると気象観測と天気予報を参照できる。

マップの切り替え:黒色「×」印の緑ボタンをクリックして拡大、「-」印の緑ボタンをクリックして縮小、緑色の三角印をクリックして隣りの地図に切り替え


METAR-TAF: